Detall de PIREP

Printer-friendly versionPDF version

[2014/06/11 08:19:00]
Flight IATA:CT2208
Pilot Number:042
Company ICAO:CAT
Aircraft Type:F100/A
PAX:48
Aircraft Registration:PFJ
Departing Airport: LFMP
Destination Airport: LFQQ
Alternate Airport:LFPG
Online: VATSIM
Route:ORBIL/N0280F180 G36 GAI/N0300F300 UT186 PERIG UY156 ADABI UN858 VANAD UN874 CMB
Flight Level:F300
No Slew and time accel
No pause
Crash detect
Detect pilot in Cockpit between each 30 and 45 minutes
08:19 Zero fuel Weight: 81825 Lbs, Fuel Weight: 22687 Lbs
08:19 VATSIM:LFMP 110800Z VRB02KT CAVOK 28/15 Q1020 NOSIG
08:19 VATSIM:LFQQ 110800Z 34005KT 310V030 CAVOK 19/09 Q1026 NOSIG
08:22 Parking Brakes off
08:25 Take-off
08:25 Take off Weight: 104204 Lbs
08:25 Wind: 305º @ 004 Knots Heading: 327º
08:25 POS N42º 45´ 06´´ E002º 51´ 48´´
08:25 Gear Up: 174 Knots
08:25 Flaps:2 at 174 Knots
08:25 Flaps:1 at 168 Knots
08:25 Flaps:0 at 175 Knots
08:40 Wind:289º@015 Knots Heading: 325º Ground Speed: 397 Knots Altitude 24465 ft
08:44 TOC
08:44 Fuel Weight: 19909 Lb
08:55 Wind:040º@031 Knots Heading: 335º Ground Speed: 447 Knots Altitude 30285 ft
09:10 Wind:030º@024 Knots Heading: 004º Ground Speed: 432 Knots Altitude 30344 ft
09:20 TOD
09:20 Fuel Weight: 16627 Lb
09:25 Wind:045º@024 Knots Heading: 019º Ground Speed: 419 Knots Altitude 28372 ft
09:40 Wind:359º@016 Knots Heading: 030º Ground Speed: 261 Knots Altitude 11788 ft
09:46 Flaps:1 at 222 Knots
09:47 Flaps:2 at 190 Knots
09:48 Flaps:3 at 180 Knots
09:48 Gear Down: 180 Knots
09:51 TouchDown:Rate -261 ft/min Speed: 159 Knots
09:52 Flaps:4 at 83 Knots
09:52 VATSIM:LFQQ 110900Z VRB03KT CAVOK 20/10 Q1026 NOSIG
09:52 Land
09:52 Wind:326º@005 Knots
09:52 Heading: 258º
09:52 Flight Duration: 01:27
09:52 Landing Weight: 96690 Lbs
09:52 POS N50º 33´ 45´´ E003º 04´ 47´´
09:52 Parking brakes on
09:52 Block to Block Duration: 01:30
09:52 Final Fuel: 14852 Lbls
09:52 Spent Fuel: 7835 Lbls
09:52 Flight Length: 541 NM
09:52 TOD Land Length: 170 NM

Exportar CSV

Powered by Drupal - Modified by Danger4k